AirNav   Pilot Hours Calculator
 
 1026 users online  

49OH Sky Ranch Airport
West Jefferson, Ohio, USA

GOING TO WEST JEFFERSON?


FAA INFORMATION EFFECTIVE 15 JULY 2021

Location

FAA Identifier: 49OH
Lat/Long: 39-56-07.6250N 083-14-11.0350W
39-56.127083N 083-14.183917W
39.9354514,-83.2363986
(estimated)
Elevation: 920 ft. / 280 m (estimated)
From city: 2 miles SE of WEST JEFFERSON, OH
Time zone: UTC -4 (UTC -5 during Standard Time)
Zip code: 43119

Airport Operations

Airport use: Private use. Permission required prior to landing
Activation date: 11/2017
Control tower: no
ARTCC: INDIANAPOLIS CENTER
FSS: DAYTON FLIGHT SERVICE STATION
Attendance: 
Segmented circle: no

Airport Communications

WX AWOS-3 at TZR (5 nm SE): 135.925 (614-878-1722)
WX AWOS-3PT at UYF (10 nm W): 120.85 (740-852-2844)
WX ASOS at OSU (11 nm NE): 121.35 (614-451-2465)
WX AWOS-3 at LCK (16 nm SE): PHONE 614-492-2441
WX ASOS at CMH (16 nm E): 124.6 (614-338-4083)
WX AWOS-3 at MRT (18 nm N): 119.275 (937-644-2967)

Nearby radio navigation aids

VOR radial/distance  VOR name  Freq  Var
XUBr339/(27.3)YELLOW BUD VOR112.5005W
APEr253/32.5APPLETON VORTAC116.7006W

 
NDB name  Hdg/Dist  Freq  Var  ID
BOUTN353/7.123005WBU -... ..-
FULER197/8.551505WOS --- ...
COURT HOUSE026/21.341406WCSS -.-. ... ...

Airport Services

Runway Information

Runway 6/24

Dimensions: 3000 x 100 ft. / 914 x 30 m
Surface: turf, in fair condition
RUNWAY 6  RUNWAY 24
Latitude: 39-55.989333N39-56.264833N
Longitude: 083-14.450333W083-13.917500W
Elevation: 920.0 ft.920.0 ft.
Traffic pattern: leftleft

Airport Ownership and Management from official FAA records

Ownership: Privately-owned
Owner: RUSS MILLER
9291 W BROAD ST
GALLOWAY, OH 43119-6145
Manager: RUSS MILLER
9291 W BROAD ST
GALLOWAY, OH 43119
Phone 614-204-4588

Airport Operational Statistics

Aircraft based on the field: 2
Single engine airplanes: 2
    

Additional Remarks

FOR CD CTC INDIANAPOLIS ARTCC AT 317-247-2411.

Instrument Procedures

There are no published instrument procedures at 49OH.

Some nearby airports with instrument procedures:

KTZR - Bolton Field Airport (5 nm SE)
KUYF - Madison County Airport (10 nm W)
KOSU - Ohio State University Airport (11 nm NE)
KLCK - Rickenbacker International Airport (16 nm SE)
KCMH - John Glenn Columbus International Airport (16 nm E)
KMRT - Union County Airport (18 nm N)
 
Loc | Ops | Rwys | IFR | FBO | Links
Com | Nav | Svcs | Stats | Notes
Aerial photo
No photo
 
Airport distance calculator
Flying to Sky Ranch Airport? Find the distance to fly.

From to 49OH

Sunrise and sunset
Times for 29-Jul-2021
 Local
(UTC-4)
 Zulu
(UTC)
Morning civil twilight05:5909:59
Sunrise06:3010:30
Sunset20:4900:49
Evening civil twilight21:2001:20

Current date and time
Zulu (UTC)  29-Jul-2021 12:40:56
Local (UTC-4)  29-Jul-2021 08:40:56
 
METAR
KTZR 
6nm SE 
291150Z 24004KT 5SM BR FEW070 21/21 A3000
KUYF 
10nm W 
291215Z AUTO 22004KT 4SM -RA SCT110 21/20 A2999 RMK AO2 LTG DSNT W THRU NE
KOSU 
11nm NE 
291153Z 22007KT 6SM HZ FEW070 24/21 A2997 RMK AO2 LTG DSNT NW SLP140 T02390211 10239 20217 55011
KLCK 
16nm SE 
291155Z AUTO 21006KT 7SM SCT070 21/21 A2998 RMK AO2 LTG DSNT N AND NW T02120205 10217 20203
KCMH 
17nm E 
291151Z 18006KT 6SM BR FEW065 OVC220 22/21 A2997 RMK AO2 SLP140 T02220206 10239 20211 56014
KMRT 
18nm N 
291215Z AUTO 22006KT 4SM SCT060 SCT120 22/21 A2997 RMK AO2 T02170207
TAF
KLCK 
16nm SE 
291134Z 2912/3012 18004KT P6SM BKN200 FM291300 20097KT P6SM VCTS SCT040CB OVC200 FM291500 22011KT P6SM SCT050 OVC200 FM291700 24012KT P6SM BKN050 FM292100 25011KT P6SM VCTS BKN045CB FM300000 29008KT P6SM BKN045 FM300500 34007KT P6SM BKN022
KCMH 
17nm E 
291134Z 2912/3012 18004KT P6SM BKN200 FM291300 21007KT P6SM VCTS SCT040CB OVC200 FM291500 22011KT P6SM SCT050 OVC200 FM291700 24012KT P6SM BKN050 FM292100 25011KT P6SM VCTS BKN045CB FM300000 29008KT P6SM BKN045 FM300500 34007KT P6SM BKN022
NOTAMs
Click for the latest NOTAMs
NOTAMs are issued by the DoD/FAA and will open in a separate window not controlled by AirNav.

 

 
 

Would you like to see your business listed on this page?

 If your business provides an interesting product or service to pilots, flight crews, aircraft, or users of the Sky Ranch Airport, you should consider listing it here.  To start the listing process, click on the button below
 
Add a business
 

Other Pages about Sky Ranch Airport

Update a link
 
Copyright © AirNav, LLC. All rights reserved. Privacy Policy  Contact